sensor_id;sensor_type;location;lat;lon;timestamp;P1;durP1;ratioP1;P2;durP2;ratioP2
7783;SDS011;19359;51.402;6.778;2022-12-07T00:01:48;17.77;;;13.05;;
7783;SDS011;19359;51.402;6.778;2022-12-07T00:04:17;22.67;;;13.02;;
7783;SDS011;19359;51.402;6.778;2022-12-07T00:06:45;19.10;;;14.27;;
7783;SDS011;19359;51.402;6.778;2022-12-07T00:09:13;15.65;;;10.70;;
7783;SDS011;19359;51.402;6.778;2022-12-07T00:11:42;16.42;;;11.32;;
7783;SDS011;19359;51.402;6.778;2022-12-07T00:14:10;13.25;;;11.05;;
7783;SDS011;19359;51.402;6.778;2022-12-07T00:16:38;22.80;;;14.60;;
7783;SDS011;19359;51.402;6.778;2022-12-07T00:19:05;22.50;;;13.93;;
7783;SDS011;19359;51.402;6.778;2022-12-07T00:21:34;18.40;;;13.65;;
7783;SDS011;19359;51.402;6.778;2022-12-07T00:24:02;17.15;;;13.98;;
7783;SDS011;19359;51.402;6.778;2022-12-07T00:26:30;22.27;;;15.50;;
7783;SDS011;19359;51.402;6.778;2022-12-07T00:28:59;18.40;;;14.65;;
7783;SDS011;19359;51.402;6.778;2022-12-07T00:31:28;12.23;;;8.18;;
7783;SDS011;19359;51.402;6.778;2022-12-07T00:33:58;17.95;;;14.05;;
7783;SDS011;19359;51.402;6.778;2022-12-07T00:36:25;19.73;;;13.45;;
7783;SDS011;19359;51.402;6.778;2022-12-07T00:38:53;17.88;;;13.70;;
7783;SDS011;19359;51.402;6.778;2022-12-07T00:41:21;26.55;;;15.10;;
7783;SDS011;19359;51.402;6.778;2022-12-07T00:43:50;24.52;;;15.02;;
7783;SDS011;19359;51.402;6.778;2022-12-07T00:46:17;20.65;;;13.85;;
7783;SDS011;19359;51.402;6.778;2022-12-07T00:48:45;19.13;;;14.80;;
7783;SDS011;19359;51.402;6.778;2022-12-07T00:51:13;17.50;;;14.73;;
7783;SDS011;19359;51.402;6.778;2022-12-07T00:53:40;15.43;;;11.30;;
7783;SDS011;19359;51.402;6.778;2022-12-07T00:56:09;19.85;;;15.63;;
7783;SDS011;19359;51.402;6.778;2022-12-07T00:58:38;23.35;;;15.63;;
7783;SDS011;19359;51.402;6.778;2022-12-07T01:01:05;21.58;;;16.20;;
7783;SDS011;19359;51.402;6.778;2022-12-07T01:03:33;16.55;;;14.05;;
7783;SDS011;19359;51.402;6.778;2022-12-07T01:06:00;18.48;;;14.55;;
7783;SDS011;19359;51.402;6.778;2022-12-07T01:08:28;22.60;;;16.30;;
7783;SDS011;19359;51.402;6.778;2022-12-07T01:10:58;21.45;;;15.57;;
7783;SDS011;19359;51.402;6.778;2022-12-07T01:13:27;18.05;;;15.35;;
7783;SDS011;19359;51.402;6.778;2022-12-07T01:15:56;19.05;;;16.27;;
7783;SDS011;19359;51.402;6.778;2022-12-07T01:18:24;20.52;;;14.98;;
7783;SDS011;19359;51.402;6.778;2022-12-07T01:20:58;22.30;;;15.55;;
7783;SDS011;19359;51.402;6.778;2022-12-07T01:23:26;25.60;;;16.67;;
7783;SDS011;19359;51.402;6.778;2022-12-07T01:25:54;21.52;;;16.27;;
7783;SDS011;19359;51.402;6.778;2022-12-07T01:28:21;26.25;;;15.55;;
7783;SDS011;19359;51.402;6.778;2022-12-07T01:30:55;23.05;;;15.90;;
7783;SDS011;19359;51.402;6.778;2022-12-07T01:33:23;22.95;;;15.07;;
7783;SDS011;19359;51.402;6.778;2022-12-07T01:35:50;23.80;;;15.68;;
7783;SDS011;19359;51.402;6.778;2022-12-07T01:38:16;18.65;;;14.23;;
7783;SDS011;19359;51.402;6.778;2022-12-07T01:40:43;20.85;;;14.38;;
7783;SDS011;19359;51.402;6.778;2022-12-07T01:43:13;19.75;;;12.95;;
7783;SDS011;19359;51.402;6.778;2022-12-07T01:45:43;17.42;;;14.15;;
7783;SDS011;19359;51.402;6.778;2022-12-07T01:48:12;24.02;;;15.35;;
7783;SDS011;19359;51.402;6.778;2022-12-07T01:50:42;26.20;;;16.35;;
7783;SDS011;19359;51.402;6.778;2022-12-07T01:53:10;21.27;;;15.32;;
7783;SDS011;19359;51.402;6.778;2022-12-07T01:55:40;19.98;;;15.00;;
7783;SDS011;19359;51.402;6.778;2022-12-07T01:58:10;23.15;;;14.65;;
7783;SDS011;19359;51.402;6.778;2022-12-07T02:00:38;22.15;;;15.45;;
7783;SDS011;19359;51.402;6.778;2022-12-07T02:03:06;22.85;;;15.25;;
7783;SDS011;19359;51.402;6.778;2022-12-07T02:05:37;20.80;;;14.48;;
7783;SDS011;19359;51.402;6.778;2022-12-07T02:08:06;23.92;;;15.45;;
7783;SDS011;19359;51.402;6.778;2022-12-07T02:10:34;22.00;;;15.10;;
7783;SDS011;19359;51.402;6.778;2022-12-07T02:13:01;23.70;;;14.30;;
7783;SDS011;19359;51.402;6.778;2022-12-07T02:15:33;22.35;;;15.45;;
7783;SDS011;19359;51.402;6.778;2022-12-07T02:18:09;21.58;;;14.23;;
7783;SDS011;19359;51.402;6.778;2022-12-07T02:20:45;20.65;;;15.38;;
7783;SDS011;19359;51.402;6.778;2022-12-07T02:23:40;28.50;;;15.15;;
7783;SDS011;19359;51.402;6.778;2022-12-07T02:26:23;21.70;;;15.38;;
7783;SDS011;19359;51.402;6.778;2022-12-07T02:29:23;20.15;;;15.13;;
7783;SDS011;19359;51.402;6.778;2022-12-07T02:31:57;23.15;;;15.60;;
7783;SDS011;19359;51.402;6.778;2022-12-07T02:34:34;24.75;;;15.82;;
7783;SDS011;19359;51.402;6.778;2022-12-07T02:37:09;19.55;;;14.80;;
7783;SDS011;19359;51.402;6.778;2022-12-07T02:39:42;18.10;;;13.73;;
7783;SDS011;19359;51.402;6.778;2022-12-07T02:42:14;23.75;;;15.05;;
7783;SDS011;19359;51.402;6.778;2022-12-07T02:44:46;21.65;;;15.35;;
7783;SDS011;19359;51.402;6.778;2022-12-07T02:47:14;24.00;;;15.13;;
7783;SDS011;19359;51.402;6.778;2022-12-07T02:49:44;24.08;;;15.18;;
7783;SDS011;19359;51.402;6.778;2022-12-07T02:52:11;21.48;;;12.93;;
7783;SDS011;19359;51.402;6.778;2022-12-07T02:54:37;17.40;;;13.68;;
7783;SDS011;19359;51.402;6.778;2022-12-07T02:57:08;31.30;;;14.95;;
7783;SDS011;19359;51.402;6.778;2022-12-07T02:59:53;24.17;;;14.65;;
7783;SDS011;19359;51.402;6.778;2022-12-07T03:02:31;22.27;;;13.70;;
7783;SDS011;19359;51.402;6.778;2022-12-07T03:05:09;20.95;;;14.55;;
7783;SDS011;19359;51.402;6.778;2022-12-07T03:07:43;22.88;;;13.68;;
7783;SDS011;19359;51.402;6.778;2022-12-07T03:10:18;22.48;;;14.55;;
7783;SDS011;19359;51.402;6.778;2022-12-07T03:12:52;19.13;;;14.65;;
7783;SDS011;19359;51.402;6.778;2022-12-07T03:15:30;17.23;;;12.88;;
7783;SDS011;19359;51.402;6.778;2022-12-07T03:17:59;24.05;;;14.98;;
7783;SDS011;19359;51.402;6.778;2022-12-07T03:20:28;23.73;;;14.23;;
7783;SDS011;19359;51.402;6.778;2022-12-07T03:22:57;21.02;;;13.32;;
7783;SDS011;19359;51.402;6.778;2022-12-07T03:25:25;22.52;;;14.13;;
7783;SDS011;19359;51.402;6.778;2022-12-07T03:27:53;23.95;;;14.98;;
7783;SDS011;19359;51.402;6.778;2022-12-07T03:30:22;21.92;;;14.43;;
7783;SDS011;19359;51.402;6.778;2022-12-07T03:32:54;22.65;;;14.98;;
7783;SDS011;19359;51.402;6.778;2022-12-07T03:35:27;22.90;;;13.32;;
7783;SDS011;19359;51.402;6.778;2022-12-07T03:37:58;23.80;;;14.35;;
7783;SDS011;19359;51.402;6.778;2022-12-07T03:40:33;20.90;;;14.52;;
7783;SDS011;19359;51.402;6.778;2022-12-07T03:43:03;20.30;;;13.98;;
7783;SDS011;19359;51.402;6.778;2022-12-07T03:45:31;25.63;;;13.35;;
7783;SDS011;19359;51.402;6.778;2022-12-07T03:48:07;20.38;;;13.95;;
7783;SDS011;19359;51.402;6.778;2022-12-07T03:50:44;21.55;;;13.25;;
7783;SDS011;19359;51.402;6.778;2022-12-07T03:53:18;19.00;;;13.40;;
7783;SDS011;19359;51.402;6.778;2022-12-07T03:55:48;23.15;;;15.88;;
7783;SDS011;19359;51.402;6.778;2022-12-07T03:58:16;21.05;;;14.43;;
7783;SDS011;19359;51.402;6.778;2022-12-07T04:00:46;19.95;;;14.27;;
7783;SDS011;19359;51.402;6.778;2022-12-07T04:03:14;23.45;;;15.70;;
7783;SDS011;19359;51.402;6.778;2022-12-07T04:05:41;26.60;;;15.52;;
7783;SDS011;19359;51.402;6.778;2022-12-07T04:08:09;21.13;;;16.00;;
7783;SDS011;19359;51.402;6.778;2022-12-07T04:10:36;20.88;;;14.40;;
7783;SDS011;19359;51.402;6.778;2022-12-07T04:13:02;26.02;;;16.17;;
7783;SDS011;19359;51.402;6.778;2022-12-07T04:15:29;26.05;;;14.98;;
7783;SDS011;19359;51.402;6.778;2022-12-07T04:17:56;22.48;;;15.15;;
7783;SDS011;19359;51.402;6.778;2022-12-07T04:20:24;28.38;;;13.35;;
7783;SDS011;19359;51.402;6.778;2022-12-07T04:22:51;24.58;;;14.85;;
7783;SDS011;19359;51.402;6.778;2022-12-07T04:25:18;19.67;;;13.13;;
7783;SDS011;19359;51.402;6.778;2022-12-07T04:27:44;20.17;;;13.70;;
7783;SDS011;19359;51.402;6.778;2022-12-07T04:30:11;18.02;;;14.85;;
7783;SDS011;19359;51.402;6.778;2022-12-07T04:32:39;23.38;;;13.75;;
7783;SDS011;19359;51.402;6.778;2022-12-07T04:35:06;21.75;;;14.18;;
7783;SDS011;19359;51.402;6.778;2022-12-07T04:37:35;29.60;;;14.50;;
7783;SDS011;19359;51.402;6.778;2022-12-07T04:40:04;26.23;;;15.02;;
7783;SDS011;19359;51.402;6.778;2022-12-07T04:42:32;23.38;;;14.32;;
7783;SDS011;19359;51.402;6.778;2022-12-07T04:44:59;23.45;;;13.70;;
7783;SDS011;19359;51.402;6.778;2022-12-07T04:47:25;19.98;;;13.18;;
7783;SDS011;19359;51.402;6.778;2022-12-07T04:49:52;20.35;;;11.82;;
7783;SDS011;19359;51.402;6.778;2022-12-07T04:52:19;19.35;;;12.32;;
7783;SDS011;19359;51.402;6.778;2022-12-07T04:54:47;21.77;;;13.30;;
7783;SDS011;19359;51.402;6.778;2022-12-07T04:57:14;21.52;;;12.00;;
7783;SDS011;19359;51.402;6.778;2022-12-07T04:59:40;21.48;;;12.82;;
7783;SDS011;19359;51.402;6.778;2022-12-07T05:02:07;22.83;;;14.38;;
7783;SDS011;19359;51.402;6.778;2022-12-07T05:04:34;20.98;;;13.82;;
7783;SDS011;19359;51.402;6.778;2022-12-07T05:07:00;14.85;;;11.43;;
7783;SDS011;19359;51.402;6.778;2022-12-07T05:09:27;19.85;;;13.57;;
7783;SDS011;19359;51.402;6.778;2022-12-07T05:11:55;19.77;;;12.07;;
7783;SDS011;19359;51.402;6.778;2022-12-07T05:14:22;22.15;;;13.30;;
7783;SDS011;19359;51.402;6.778;2022-12-07T05:16:49;21.88;;;12.75;;
7783;SDS011;19359;51.402;6.778;2022-12-07T05:19:16;16.95;;;11.63;;
7783;SDS011;19359;51.402;6.778;2022-12-07T05:21:44;21.25;;;13.73;;
7783;SDS011;19359;51.402;6.778;2022-12-07T05:24:11;19.05;;;12.45;;
7783;SDS011;19359;51.402;6.778;2022-12-07T05:26:39;15.98;;;11.18;;
7783;SDS011;19359;51.402;6.778;2022-12-07T05:29:07;18.85;;;12.52;;
7783;SDS011;19359;51.402;6.778;2022-12-07T05:31:38;18.05;;;12.68;;
7783;SDS011;19359;51.402;6.778;2022-12-07T05:34:05;23.42;;;12.88;;
7783;SDS011;19359;51.402;6.778;2022-12-07T05:36:32;22.90;;;11.73;;
7783;SDS011;19359;51.402;6.778;2022-12-07T05:38:59;24.23;;;11.63;;
7783;SDS011;19359;51.402;6.778;2022-12-07T05:41:25;22.27;;;12.90;;
7783;SDS011;19359;51.402;6.778;2022-12-07T05:44:11;25.00;;;12.27;;
7783;SDS011;19359;51.402;6.778;2022-12-07T05:46:38;16.27;;;11.48;;
7783;SDS011;19359;51.402;6.778;2022-12-07T05:49:05;17.85;;;11.45;;
7783;SDS011;19359;51.402;6.778;2022-12-07T05:51:31;19.33;;;11.80;;
7783;SDS011;19359;51.402;6.778;2022-12-07T05:53:58;16.05;;;11.73;;
7783;SDS011;19359;51.402;6.778;2022-12-07T05:56:25;16.63;;;11.68;;
7783;SDS011;19359;51.402;6.778;2022-12-07T05:58:52;15.50;;;10.85;;
7783;SDS011;19359;51.402;6.778;2022-12-07T06:01:38;13.85;;;10.30;;
7783;SDS011;19359;51.402;6.778;2022-12-07T06:04:05;18.75;;;12.02;;
7783;SDS011;19359;51.402;6.778;2022-12-07T06:06:32;18.08;;;11.20;;
7783;SDS011;19359;51.402;6.778;2022-12-07T06:08:59;16.05;;;10.27;;
7783;SDS011;19359;51.402;6.778;2022-12-07T06:11:25;16.17;;;11.35;;
7783;SDS011;19359;51.402;6.778;2022-12-07T06:14:10;21.80;;;11.80;;
7783;SDS011;19359;51.402;6.778;2022-12-07T06:16:36;14.90;;;10.65;;
7783;SDS011;19359;51.402;6.778;2022-12-07T06:19:04;13.55;;;11.05;;
7783;SDS011;19359;51.402;6.778;2022-12-07T06:21:31;18.08;;;9.98;;
7783;SDS011;19359;51.402;6.778;2022-12-07T06:23:58;13.88;;;8.73;;
7783;SDS011;19359;51.402;6.778;2022-12-07T06:26:25;13.80;;;10.52;;
7783;SDS011;19359;51.402;6.778;2022-12-07T06:28:51;14.38;;;10.63;;
7783;SDS011;19359;51.402;6.778;2022-12-07T06:31:18;19.45;;;11.90;;
7783;SDS011;19359;51.402;6.778;2022-12-07T06:33:46;14.85;;;11.20;;
7783;SDS011;19359;51.402;6.778;2022-12-07T06:36:13;18.98;;;9.90;;
7783;SDS011;19359;51.402;6.778;2022-12-07T06:38:40;17.95;;;9.63;;
7783;SDS011;19359;51.402;6.778;2022-12-07T06:41:06;14.05;;;9.02;;
7783;SDS011;19359;51.402;6.778;2022-12-07T06:43:33;16.83;;;10.25;;
7783;SDS011;19359;51.402;6.778;2022-12-07T06:46:00;10.93;;;9.77;;
7783;SDS011;19359;51.402;6.778;2022-12-07T06:48:27;18.08;;;11.43;;
7783;SDS011;19359;51.402;6.778;2022-12-07T06:50:55;16.13;;;10.98;;
7783;SDS011;19359;51.402;6.778;2022-12-07T06:53:21;22.60;;;10.88;;
7783;SDS011;19359;51.402;6.778;2022-12-07T06:55:48;18.38;;;10.38;;
7783;SDS011;19359;51.402;6.778;2022-12-07T06:58:15;20.50;;;10.52;;
7783;SDS011;19359;51.402;6.778;2022-12-07T07:00:42;16.63;;;11.18;;
7783;SDS011;19359;51.402;6.778;2022-12-07T07:03:08;17.48;;;9.90;;
7783;SDS011;19359;51.402;6.778;2022-12-07T07:05:35;16.33;;;9.73;;
7783;SDS011;19359;51.402;6.778;2022-12-07T07:08:03;19.20;;;10.18;;
7783;SDS011;19359;51.402;6.778;2022-12-07T07:10:30;21.02;;;9.68;;
7783;SDS011;19359;51.402;6.778;2022-12-07T07:12:57;15.07;;;9.60;;
7783;SDS011;19359;51.402;6.778;2022-12-07T07:15:24;12.25;;;9.32;;
7783;SDS011;19359;51.402;6.778;2022-12-07T07:17:51;15.68;;;8.70;;
7783;SDS011;19359;51.402;6.778;2022-12-07T07:20:18;14.88;;;8.93;;
7783;SDS011;19359;51.402;6.778;2022-12-07T07:22:45;11.93;;;8.88;;
7783;SDS011;19359;51.402;6.778;2022-12-07T07:25:13;11.00;;;9.25;;
7783;SDS011;19359;51.402;6.778;2022-12-07T07:27:40;16.42;;;9.88;;
7783;SDS011;19359;51.402;6.778;2022-12-07T07:30:08;12.40;;;9.60;;
7783;SDS011;19359;51.402;6.778;2022-12-07T07:32:35;14.20;;;10.15;;
7783;SDS011;19359;51.402;6.778;2022-12-07T07:35:02;14.23;;;9.77;;
7783;SDS011;19359;51.402;6.778;2022-12-07T07:37:29;14.52;;;9.55;;
7783;SDS011;19359;51.402;6.778;2022-12-07T07:39:55;13.93;;;10.20;;
7783;SDS011;19359;51.402;6.778;2022-12-07T07:42:23;15.07;;;9.45;;
7783;SDS011;19359;51.402;6.778;2022-12-07T07:44:50;13.55;;;9.82;;
7783;SDS011;19359;51.402;6.778;2022-12-07T07:47:17;17.05;;;9.95;;
7783;SDS011;19359;51.402;6.778;2022-12-07T07:49:43;14.07;;;8.77;;
7783;SDS011;19359;51.402;6.778;2022-12-07T07:52:10;15.32;;;9.70;;
7783;SDS011;19359;51.402;6.778;2022-12-07T07:54:37;12.25;;;9.25;;
7783;SDS011;19359;51.402;6.778;2022-12-07T07:57:04;14.82;;;8.63;;
7783;SDS011;19359;51.402;6.778;2022-12-07T07:59:32;12.77;;;9.15;;
7783;SDS011;19359;51.402;6.778;2022-12-07T08:01:58;17.08;;;9.13;;
7783;SDS011;19359;51.402;6.778;2022-12-07T08:04:25;15.48;;;9.90;;
7783;SDS011;19359;51.402;6.778;2022-12-07T08:06:52;19.63;;;9.50;;
7783;SDS011;19359;51.402;6.778;2022-12-07T08:09:18;14.82;;;9.73;;
7783;SDS011;19359;51.402;6.778;2022-12-07T08:11:45;13.18;;;9.27;;
7783;SDS011;19359;51.402;6.778;2022-12-07T08:14:12;13.70;;;8.55;;
7783;SDS011;19359;51.402;6.778;2022-12-07T08:16:40;16.48;;;10.07;;
7783;SDS011;19359;51.402;6.778;2022-12-07T08:19:07;13.82;;;9.70;;
7783;SDS011;19359;51.402;6.778;2022-12-07T08:21:33;12.48;;;8.82;;
7783;SDS011;19359;51.402;6.778;2022-12-07T08:24:00;23.08;;;9.15;;
7783;SDS011;19359;51.402;6.778;2022-12-07T08:26:27;12.27;;;8.57;;
7783;SDS011;19359;51.402;6.778;2022-12-07T08:28:53;14.05;;;9.45;;
7783;SDS011;19359;51.402;6.778;2022-12-07T08:31:20;12.90;;;8.55;;
7783;SDS011;19359;51.402;6.778;2022-12-07T08:33:48;18.40;;;9.68;;
7783;SDS011;19359;51.402;6.778;2022-12-07T08:36:15;11.10;;;8.55;;
7783;SDS011;19359;51.402;6.778;2022-12-07T08:38:43;12.68;;;8.18;;
7783;SDS011;19359;51.402;6.778;2022-12-07T08:41:09;15.63;;;8.25;;
7783;SDS011;19359;51.402;6.778;2022-12-07T08:43:36;12.77;;;8.50;;
7783;SDS011;19359;51.402;6.778;2022-12-07T08:46:07;9.32;;;8.07;;
7783;SDS011;19359;51.402;6.778;2022-12-07T08:48:37;17.25;;;7.82;;
7783;SDS011;19359;51.402;6.778;2022-12-07T08:51:08;10.13;;;7.70;;
7783;SDS011;19359;51.402;6.778;2022-12-07T08:53:35;19.98;;;8.48;;
7783;SDS011;19359;51.402;6.778;2022-12-07T08:56:04;16.50;;;8.82;;
7783;SDS011;19359;51.402;6.778;2022-12-07T08:58:33;17.35;;;9.05;;
7783;SDS011;19359;51.402;6.778;2022-12-07T09:01:02;11.27;;;6.40;;
7783;SDS011;19359;51.402;6.778;2022-12-07T09:03:30;11.63;;;7.80;;
7783;SDS011;19359;51.402;6.778;2022-12-07T09:05:57;16.50;;;6.72;;
7783;SDS011;19359;51.402;6.778;2022-12-07T09:08:26;10.35;;;7.35;;
7783;SDS011;19359;51.402;6.778;2022-12-07T09:10:58;19.38;;;6.85;;
7783;SDS011;19359;51.402;6.778;2022-12-07T09:13:25;11.45;;;7.55;;
7783;SDS011;19359;51.402;6.778;2022-12-07T09:15:52;11.00;;;7.75;;
7783;SDS011;19359;51.402;6.778;2022-12-07T09:18:18;14.68;;;6.97;;
7783;SDS011;19359;51.402;6.778;2022-12-07T09:20:45;8.85;;;6.75;;
7783;SDS011;19359;51.402;6.778;2022-12-07T09:23:12;9.68;;;6.75;;
7783;SDS011;19359;51.402;6.778;2022-12-07T09:25:40;16.30;;;6.78;;
7783;SDS011;19359;51.402;6.778;2022-12-07T09:28:06;18.02;;;7.03;;
7783;SDS011;19359;51.402;6.778;2022-12-07T09:30:33;10.63;;;5.82;;
7783;SDS011;19359;51.402;6.778;2022-12-07T09:33:01;7.90;;;5.30;;
7783;SDS011;19359;51.402;6.778;2022-12-07T09:35:27;8.10;;;6.55;;
7783;SDS011;19359;51.402;6.778;2022-12-07T09:37:55;7.97;;;5.97;;
7783;SDS011;19359;51.402;6.778;2022-12-07T09:40:22;7.25;;;5.93;;
7783;SDS011;19359;51.402;6.778;2022-12-07T09:42:52;10.73;;;6.25;;
7783;SDS011;19359;51.402;6.778;2022-12-07T09:45:22;10.05;;;5.55;;
7783;SDS011;19359;51.402;6.778;2022-12-07T09:47:51;14.75;;;6.15;;
7783;SDS011;19359;51.402;6.778;2022-12-07T09:50:19;7.15;;;5.40;;
7783;SDS011;19359;51.402;6.778;2022-12-07T09:52:48;10.25;;;6.10;;
7783;SDS011;19359;51.402;6.778;2022-12-07T09:55:18;7.85;;;5.65;;
7783;SDS011;19359;51.402;6.778;2022-12-07T09:57:48;11.20;;;6.68;;
7783;SDS011;19359;51.402;6.778;2022-12-07T10:00:18;8.57;;;6.30;;
7783;SDS011;19359;51.402;6.778;2022-12-07T10:02:47;8.65;;;5.38;;
7783;SDS011;19359;51.402;6.778;2022-12-07T10:05:19;10.32;;;5.80;;
7783;SDS011;19359;51.402;6.778;2022-12-07T10:07:49;12.85;;;5.28;;
7783;SDS011;19359;51.402;6.778;2022-12-07T10:10:17;9.52;;;5.15;;
7783;SDS011;19359;51.402;6.778;2022-12-07T10:12:54;8.30;;;5.20;;
7783;SDS011;19359;51.402;6.778;2022-12-07T10:15:24;9.95;;;5.63;;
7783;SDS011;19359;51.402;6.778;2022-12-07T10:18:15;16.42;;;4.40;;
7783;SDS011;19359;51.402;6.778;2022-12-07T10:20:44;10.45;;;5.03;;
7783;SDS011;19359;51.402;6.778;2022-12-07T10:23:13;5.07;;;4.45;;
7783;SDS011;19359;51.402;6.778;2022-12-07T10:25:41;8.18;;;5.07;;
7783;SDS011;19359;51.402;6.778;2022-12-07T10:28:15;8.75;;;6.28;;
7783;SDS011;19359;51.402;6.778;2022-12-07T10:30:49;12.80;;;5.32;;
7783;SDS011;19359;51.402;6.778;2022-12-07T10:33:29;15.07;;;5.70;;
7783;SDS011;19359;51.402;6.778;2022-12-07T10:35:58;8.73;;;5.03;;
7783;SDS011;19359;51.402;6.778;2022-12-07T10:38:26;11.80;;;4.43;;
7783;SDS011;19359;51.402;6.778;2022-12-07T10:41:02;7.93;;;4.50;;
7783;SDS011;19359;51.402;6.778;2022-12-07T10:43:31;4.43;;;4.03;;
7783;SDS011;19359;51.402;6.778;2022-12-07T10:46:08;16.52;;;4.45;;
7783;SDS011;19359;51.402;6.778;2022-12-07T10:48:50;9.80;;;4.40;;
7783;SDS011;19359;51.402;6.778;2022-12-07T10:51:25;5.88;;;3.45;;
7783;SDS011;19359;51.402;6.778;2022-12-07T10:54:02;4.38;;;3.95;;
7783;SDS011;19359;51.402;6.778;2022-12-07T10:56:42;3.38;;;3.13;;
7783;SDS011;19359;51.402;6.778;2022-12-07T10:59:35;7.05;;;3.33;;
7783;SDS011;19359;51.402;6.778;2022-12-07T11:02:20;3.25;;;3.00;;
7783;SDS011;19359;51.402;6.778;2022-12-07T11:04:59;5.35;;;2.78;;
7783;SDS011;19359;51.402;6.778;2022-12-07T11:07:38;3.65;;;2.15;;
7783;SDS011;19359;51.402;6.778;2022-12-07T11:10:13;6.53;;;2.92;;
7783;SDS011;19359;51.402;6.778;2022-12-07T11:12:47;5.20;;;2.22;;
7783;SDS011;19359;51.402;6.778;2022-12-07T11:15:24;8.18;;;2.42;;
7783;SDS011;19359;51.402;6.778;2022-12-07T11:18:00;3.80;;;2.83;;
7783;SDS011;19359;51.402;6.778;2022-12-07T11:20:35;3.05;;;2.35;;
7783;SDS011;19359;51.402;6.778;2022-12-07T11:23:11;7.75;;;2.60;;
7783;SDS011;19359;51.402;6.778;2022-12-07T11:25:47;6.72;;;2.72;;
7783;SDS011;19359;51.402;6.778;2022-12-07T11:28:24;10.05;;;2.85;;
7783;SDS011;19359;51.402;6.778;2022-12-07T11:31:01;6.18;;;2.65;;
7783;SDS011;19359;51.402;6.778;2022-12-07T11:33:40;4.28;;;1.50;;
7783;SDS011;19359;51.402;6.778;2022-12-07T11:36:14;7.65;;;2.72;;
7783;SDS011;19359;51.402;6.778;2022-12-07T11:38:57;7.00;;;2.75;;
7783;SDS011;19359;51.402;6.778;2022-12-07T11:41:28;5.60;;;3.00;;
7783;SDS011;19359;51.402;6.778;2022-12-07T11:43:59;3.47;;;2.75;;
7783;SDS011;19359;51.402;6.778;2022-12-07T11:46:35;4.15;;;2.03;;
7783;SDS011;19359;51.402;6.778;2022-12-07T11:49:13;2.53;;;2.25;;
7783;SDS011;19359;51.402;6.778;2022-12-07T11:51:45;4.88;;;1.75;;
7783;SDS011;19359;51.402;6.778;2022-12-07T11:54:17;2.92;;;1.73;;
7783;SDS011;19359;51.402;6.778;2022-12-07T11:56:49;6.28;;;1.95;;
7783;SDS011;19359;51.402;6.778;2022-12-07T11:59:19;3.80;;;2.10;;
7783;SDS011;19359;51.402;6.778;2022-12-07T12:01:53;7.18;;;2.35;;
7783;SDS011;19359;51.402;6.778;2022-12-07T12:04:25;5.28;;;2.45;;
7783;SDS011;19359;51.402;6.778;2022-12-07T12:06:56;6.70;;;2.30;;
7783;SDS011;19359;51.402;6.778;2022-12-07T12:09:24;6.68;;;2.10;;
7783;SDS011;19359;51.402;6.778;2022-12-07T12:12:01;6.47;;;1.98;;
7783;SDS011;19359;51.402;6.778;2022-12-07T12:14:45;2.00;;;1.90;;
7783;SDS011;19359;51.402;6.778;2022-12-07T12:17:22;10.95;;;1.95;;
7783;SDS011;19359;51.402;6.778;2022-12-07T12:20:02;5.60;;;2.17;;
7783;SDS011;19359;51.402;6.778;2022-12-07T12:22:33;3.70;;;1.88;;
7783;SDS011;19359;51.402;6.778;2022-12-07T12:25:04;5.40;;;2.15;;
7783;SDS011;19359;51.402;6.778;2022-12-07T12:27:33;2.58;;;1.85;;
7783;SDS011;19359;51.402;6.778;2022-12-07T12:30:04;10.82;;;2.50;;
7783;SDS011;19359;51.402;6.778;2022-12-07T12:32:36;5.80;;;2.10;;
7783;SDS011;19359;51.402;6.778;2022-12-07T12:35:22;4.60;;;2.03;;
7783;SDS011;19359;51.402;6.778;2022-12-07T12:37:55;1.98;;;1.88;;
7783;SDS011;19359;51.402;6.778;2022-12-07T12:40:55;4.47;;;2.30;;
7783;SDS011;19359;51.402;6.778;2022-12-07T12:46:36;5.18;;;1.13;;
7783;SDS011;19359;51.402;6.778;2022-12-07T12:49:24;0.93;;;0.65;;
7783;SDS011;19359;51.402;6.778;2022-12-07T12:55:30;4.85;;;1.33;;
7783;SDS011;19359;51.402;6.778;2022-12-07T12:58:29;3.10;;;0.80;;
7783;SDS011;19359;51.402;6.778;2022-12-07T13:04:27;0.98;;;0.80;;
7783;SDS011;19359;51.402;6.778;2022-12-07T13:10:24;1.10;;;0.95;;
7783;SDS011;19359;51.402;6.778;2022-12-07T13:13:22;2.85;;;1.92;;
7783;SDS011;19359;51.402;6.778;2022-12-07T13:25:05;2.90;;;2.40;;
7783;SDS011;19359;51.402;6.778;2022-12-07T13:27:37;9.15;;;2.58;;
7783;SDS011;19359;51.402;6.778;2022-12-07T13:30:09;5.80;;;2.58;;
7783;SDS011;19359;51.402;6.778;2022-12-07T13:32:42;2.72;;;2.30;;
7783;SDS011;19359;51.402;6.778;2022-12-07T13:35:28;2.17;;;2.03;;
7783;SDS011;19359;51.402;6.778;2022-12-07T13:37:56;2.88;;;1.85;;
7783;SDS011;19359;51.402;6.778;2022-12-07T13:40:23;4.50;;;2.45;;
7783;SDS011;19359;51.402;6.778;2022-12-07T13:42:58;5.03;;;1.95;;
7783;SDS011;19359;51.402;6.778;2022-12-07T13:45:26;7.38;;;2.67;;
7783;SDS011;19359;51.402;6.778;2022-12-07T13:48:14;6.88;;;2.40;;
7783;SDS011;19359;51.402;6.778;2022-12-07T13:50:48;7.90;;;2.83;;
7783;SDS011;19359;51.402;6.778;2022-12-07T13:53:19;6.30;;;2.25;;
7783;SDS011;19359;51.402;6.778;2022-12-07T13:55:47;2.92;;;1.63;;
7783;SDS011;19359;51.402;6.778;2022-12-07T13:58:15;4.60;;;1.95;;
7783;SDS011;19359;51.402;6.778;2022-12-07T14:00:42;1.35;;;1.27;;
7783;SDS011;19359;51.402;6.778;2022-12-07T14:03:25;6.90;;;1.85;;
7783;SDS011;19359;51.402;6.778;2022-12-07T14:06:14;6.68;;;1.83;;
7783;SDS011;19359;51.402;6.778;2022-12-07T14:08:42;8.20;;;1.17;;
7783;SDS011;19359;51.402;6.778;2022-12-07T14:11:10;3.80;;;0.98;;
7783;SDS011;19359;51.402;6.778;2022-12-07T14:13:47;4.00;;;0.85;;
7783;SDS011;19359;51.402;6.778;2022-12-07T14:16:22;2.38;;;1.08;;
7783;SDS011;19359;51.402;6.778;2022-12-07T14:18:53;5.40;;;1.05;;
7783;SDS011;19359;51.402;6.778;2022-12-07T14:21:21;3.17;;;1.35;;
7783;SDS011;19359;51.402;6.778;2022-12-07T14:24:02;1.52;;;1.02;;
7783;SDS011;19359;51.402;6.778;2022-12-07T14:26:35;8.93;;;1.27;;
7783;SDS011;19359;51.402;6.778;2022-12-07T14:29:20;5.40;;;1.30;;
7783;SDS011;19359;51.402;6.778;2022-12-07T14:31:57;8.15;;;1.58;;
7783;SDS011;19359;51.402;6.778;2022-12-07T14:34:35;5.15;;;1.10;;
7783;SDS011;19359;51.402;6.778;2022-12-07T14:37:02;2.70;;;1.05;;
7783;SDS011;19359;51.402;6.778;2022-12-07T14:39:30;9.88;;;1.92;;
7783;SDS011;19359;51.402;6.778;2022-12-07T14:41:56;4.78;;;1.92;;
7783;SDS011;19359;51.402;6.778;2022-12-07T14:44:24;3.53;;;2.65;;
7783;SDS011;19359;51.402;6.778;2022-12-07T14:46:51;10.40;;;2.03;;
7783;SDS011;19359;51.402;6.778;2022-12-07T14:49:19;4.07;;;1.40;;
7783;SDS011;19359;51.402;6.778;2022-12-07T14:51:46;3.25;;;1.50;;
7783;SDS011;19359;51.402;6.778;2022-12-07T14:54:14;3.20;;;1.92;;
7783;SDS011;19359;51.402;6.778;2022-12-07T14:56:43;5.03;;;1.55;;
7783;SDS011;19359;51.402;6.778;2022-12-07T14:59:13;5.65;;;1.65;;
7783;SDS011;19359;51.402;6.778;2022-12-07T15:01:41;13.73;;;2.38;;
7783;SDS011;19359;51.402;6.778;2022-12-07T15:04:08;4.68;;;1.73;;
7783;SDS011;19359;51.402;6.778;2022-12-07T15:06:35;3.83;;;2.05;;
7783;SDS011;19359;51.402;6.778;2022-12-07T15:09:02;2.35;;;1.77;;
7783;SDS011;19359;51.402;6.778;2022-12-07T15:11:29;4.38;;;1.73;;
7783;SDS011;19359;51.402;6.778;2022-12-07T15:13:56;2.53;;;1.58;;
7783;SDS011;19359;51.402;6.778;2022-12-07T15:16:36;4.47;;;2.40;;
7783;SDS011;19359;51.402;6.778;2022-12-07T15:19:07;5.75;;;2.45;;
7783;SDS011;19359;51.402;6.778;2022-12-07T15:21:37;7.45;;;2.90;;
7783;SDS011;19359;51.402;6.778;2022-12-07T15:24:04;7.13;;;3.08;;
7783;SDS011;19359;51.402;6.778;2022-12-07T15:26:32;4.82;;;2.28;;
7783;SDS011;19359;51.402;6.778;2022-12-07T15:28:58;4.90;;;2.65;;